Grand Princess — ZCBU5 — position and weather

sailwx.info

Track history (hours):
 
Tides and Currents Weather Stations Pressure Air Temp Water Temp Dewpoint Dewpoint Depression Visibility Wind Speed Wind Dir Waves Ship Positions

Grand Princess

Operator: Princess Cruises

Last reported at 2018-Jan-20 14:00 UTC. Time now 2018-Jan-20 21:18 UTC.
Position N 25°30' W 113°24'.

Length 289.5 m; beam 36 m; draft 8.5 m.

Type: Passenger vessel. MMSI: 310327000.

Wind from 330 at 15 knots

Barometer 1016.0 mb
Air temperature 18.0 ° C
Visibility: greater than 10.8 NM
Dewpoint 10.6 ° C
Water temperature 21.0 ° C

Date/timePositionNaut miles runAvg speedWind from/ knotsBaromVisibWave heightAir tempDewpointWater temp
2018-Jan-20 14:00N 25°30' W 113°24'   330 / 151016.010.8 18.010.621.0
2018-Jan-18 01:00N 19°18' W 105°06'   350 / 191013.010.8 25.018.828.0
2018-Jan-15 13:00N 23°24' W 111°30'45019.6 010 / 131017.010.8 20.016.724.0
2018-Jan-14 14:00N 29°12' W 116°48'22018.3 040 / 91020.0 14.314.320.0
2018-Jan-14 02:00N 32°06' W 119°24'37310.7 070 / 171017.310.8 17.0 9.416.0
2018-Jan-12 15:00N 37°48' W 122°24'0 0.9
2018-Jan-12 14:30N 37°49' W 122°24'4 7.1
2018-Jan-12 14:01N 37°49' W 122°29'713.9
2018-Jan-12 13:31N 37°46' W 122°37'5 9.2
2018-Jan-12 13:00N 37°43' W 122°40'510.7
2018-Jan-12 12:30N 37°37' W 122°40'612.9
2018-Jan-12 12:00N 37°31' W 122°40'816.6
2018-Jan-12 11:31N 37°23' W 122°40'816.3
2018-Jan-12 11:00N 37°15' W 122°39'816.2
2018-Jan-12 10:31N 37°07' W 122°37'917.2
2018-Jan-12 10:00N 36°58' W 122°33'918.7
2018-Jan-12 09:30N 36°50' W 122°29'918.9
2018-Jan-12 09:00N 36°41' W 122°25'918.5
2018-Jan-12 08:30N 36°32' W 122°21'918.5
2018-Jan-12 08:00N 36°24' W 122°17'918.8
2018-Jan-12 07:30N 36°15' W 122°13'1019.8
2018-Jan-12 07:00N 36°05' W 122°09'1019.6
2018-Jan-12 06:30N 35°56' W 122°05'1019.8
2018-Jan-12 06:00N 35°47' W 122°01'1020.0
2018-Jan-12 05:30N 35°38' W 121°55'1020.1
2018-Jan-12 05:00N 35°29' W 121°50'1020.1
2018-Jan-12 04:30N 35°19' W 121°45'1020.2
2018-Jan-12 04:00N 35°10' W 121°42'1020.1
2018-Jan-12 03:30N 34°60' W 121°40'1020.3
2018-Jan-12 03:00N 34°50' W 121°37'1020.1
2018-Jan-12 02:30N 34°40' W 121°35'1020.1
2018-Jan-12 02:00N 34°30' W 121°32'7411.4
2018-Jan-12 02:00N 34°24' W 121°30'4 7.4 320 / 241023.010.8 13.0 9.114.0
2018-Jan-12 01:31N 34°20' W 121°30'1020.3
2018-Jan-12 01:00N 34°10' W 121°27'1020.3
2018-Jan-12 00:30N 34°01' W 121°25'1020.1
2018-Jan-12 00:00N 33°50' W 121°22'1019.4
2018-Jan-11 23:28N 33°41' W 121°18'1020.5
2018-Jan-11 23:00N 33°36' W 121°09'1020.5
2018-Jan-11 22:31N 33°31' W 120°58'1020.0
2018-Jan-11 22:00N 33°24' W 120°49'1020.2
2018-Jan-11 21:30N 33°19' W 120°39'1120.3
2018-Jan-11 20:59N 33°13' W 120°28'1019.8
2018-Jan-11 20:30N 33°08' W 120°18'1020.0
2018-Jan-11 20:00N 33°00' W 120°11'1019.8
2018-Jan-11 19:30N 32°53' W 120°04'1019.7
2018-Jan-11 19:01N 32°45' W 119°57'  
Track history (hours):
 
Tides and Currents Weather Stations Pressure Air Temp Water Temp Dewpoint Dewpoint Depression Visibility Wind Speed Wind Dir Waves Ship Positions

Grand Princess

Operator: Princess Cruises

Last reported at 2018-Jan-20 14:00 UTC. Time now 2018-Jan-20 21:18 UTC.
Position N 25°30' W 113°24'.

Length 289.5 m; beam 36 m; draft 8.5 m.

Type: Passenger vessel. MMSI: 310327000.

Wind from 330 at 15 knots

Barometer 1016.0 mb
Air temperature 18.0 ° C
Visibility: greater than 10.8 NM
Dewpoint 10.6 ° C
Water temperature 21.0 ° C

Date/timePositionNaut miles runAvg speedWind from/ knotsBaromVisibWave heightAir tempDewpointWater temp
2018-Jan-20 14:00N 25°30' W 113°24'   330 / 151016.010.8 18.010.621.0
2018-Jan-18 01:00N 19°18' W 105°06'   350 / 191013.010.8 25.018.828.0
2018-Jan-15 13:00N 23°24' W 111°30'45019.6 010 / 131017.010.8 20.016.724.0
2018-Jan-14 14:00N 29°12' W 116°48'22018.3 040 / 91020.0 14.314.320.0
2018-Jan-14 02:00N 32°06' W 119°24'37310.7 070 / 171017.310.8 17.0 9.416.0
2018-Jan-12 15:00N 37°48' W 122°24'0 0.9
2018-Jan-12 14:30N 37°49' W 122°24'4 7.1
2018-Jan-12 14:01N 37°49' W 122°29'713.9
2018-Jan-12 13:31N 37°46' W 122°37'5 9.2
2018-Jan-12 13:00N 37°43' W 122°40'510.7
2018-Jan-12 12:30N 37°37' W 122°40'612.9
2018-Jan-12 12:00N 37°31' W 122°40'816.6
2018-Jan-12 11:31N 37°23' W 122°40'816.3
2018-Jan-12 11:00N 37°15' W 122°39'816.2
2018-Jan-12 10:31N 37°07' W 122°37'917.2
2018-Jan-12 10:00N 36°58' W 122°33'918.7
2018-Jan-12 09:30N 36°50' W 122°29'918.9
2018-Jan-12 09:00N 36°41' W 122°25'918.5
2018-Jan-12 08:30N 36°32' W 122°21'918.5
2018-Jan-12 08:00N 36°24' W 122°17'918.8
2018-Jan-12 07:30N 36°15' W 122°13'1019.8
2018-Jan-12 07:00N 36°05' W 122°09'1019.6
2018-Jan-12 06:30N 35°56' W 122°05'1019.8
2018-Jan-12 06:00N 35°47' W 122°01'1020.0
2018-Jan-12 05:30N 35°38' W 121°55'1020.1
2018-Jan-12 05:00N 35°29' W 121°50'1020.1
2018-Jan-12 04:30N 35°19' W 121°45'1020.2
2018-Jan-12 04:00N 35°10' W 121°42'1020.1
2018-Jan-12 03:30N 34°60' W 121°40'1020.3
2018-Jan-12 03:00N 34°50' W 121°37'1020.1
2018-Jan-12 02:30N 34°40' W 121°35'1020.1
2018-Jan-12 02:00N 34°30' W 121°32'7411.4
2018-Jan-12 02:00N 34°24' W 121°30'4 7.4 320 / 241023.010.8 13.0 9.114.0
2018-Jan-12 01:31N 34°20' W 121°30'1020.3
2018-Jan-12 01:00N 34°10' W 121°27'1020.3
2018-Jan-12 00:30N 34°01' W 121°25'1020.1
2018-Jan-12 00:00N 33°50' W 121°22'1019.4
2018-Jan-11 23:28N 33°41' W 121°18'1020.5
2018-Jan-11 23:00N 33°36' W 121°09'1020.5
2018-Jan-11 22:31N 33°31' W 120°58'1020.0
2018-Jan-11 22:00N 33°24' W 120°49'1020.2
2018-Jan-11 21:30N 33°19' W 120°39'1120.3
2018-Jan-11 20:59N 33°13' W 120°28'1019.8
2018-Jan-11 20:30N 33°08' W 120°18'1020.0
2018-Jan-11 20:00N 33°00' W 120°11'1019.8
2018-Jan-11 19:30N 32°53' W 120°04'1019.7
2018-Jan-11 19:01N 32°45' W 119°57'  

Dump ship's entire track history